CYQH

Watson Lake Airport

Watson Lake, , Canada
METAR CYQH 211500Z VRB02KT 20SM BKN038 OVC050 M00/M06 A2969 RMK SC5SC3 SLP082
Observed Flight Rules
Apr-21 @ 15:00 UTC (41 minutes ago) Visual Flight Rules
Wind Visibility Clouds
Variable at 2 knots 20 miles
  • Broken at 3,800' AGL
  • Overcast at 5,000' AGL
Temperatures Readings
Current 0°C / 32°F
Dewpoint -6°C / 21°F
Humidity 64%
Altimeter 29.69" Hg
Pressure 1008.2 hPa
Elevation 690
METAR CYQH 211500Z VRB02KT 20SM BKN038 OVC050 M00/M06 A2969 RMK SC5SC3 SLP082
Observed Flight Rules
Apr-21 @ 15:00 UTC
(41 minutes ago)
VFR
Wind Visibility
Variable at 2 knots 20 miles
Clouds
  • Broken at 3,800' AGL
  • Overcast at 5,000' AGL
Temperature Dewpoint
0°C / 32°F -6°C / 21°F
Humidity Altimeter Pressure
64% 29.69" Hg 1008.2 hPa